Inmocean — ZCXX2 — position and weather

sailwx.info

Track history (hours):
 
Tides and Currents Weather Stations Pressure Air Temp Water Temp Dewpoint Dewpoint Depression Visibility Wind Speed Wind Dir Waves Ship Positions

Inmocean

Last reported at 2017-Nov-11 14:05 UTC. Time now 2017-Nov-20 07:47 UTC.
Position N 43°09' E 009°47'.
Warning: this ship's position is 8 days out of date.

Type: Sailing vessel. MMSI: 319120000.

Date/timePositionNaut miles runAvg speedWind from/ knotsBaromVisibWave heightAir tempDewpointWater temp
2017-Nov-11 14:05N 43°09' E 009°47'1 8.7
2017-Nov-11 13:58N 43°09' E 009°47'4 8.7
2017-Nov-11 13:30N 43°12' E 009°51'4 8.9
2017-Nov-11 13:00N 43°16' E 009°54'5 9.7
2017-Nov-11 12:30N 43°21' E 009°54'5 9.7
2017-Nov-11 12:00N 43°26' E 009°55'5 9.0
2017-Nov-11 11:30N 43°31' E 009°55'4 8.9
2017-Nov-11 11:00N 43°35' E 009°56'5 8.9
2017-Nov-11 10:28N 43°40' E 009°56'4 8.9
2017-Nov-11 09:59N 43°44' E 009°57'5 9.0
2017-Nov-11 09:25N 43°49' E 009°59'4 8.9
2017-Nov-11 08:59N 43°53' E 010°01'4 9.1
2017-Nov-11 08:30N 43°57' E 010°02'4 8.1
2017-Nov-11 08:00N 44°01' E 010°03'1 2.5
2017-Nov-11 07:29N 44°02' E 010°02'0 0.0
2017-Nov-11 06:59N 44°02' E 010°02'0 0.0
2017-Nov-11 06:20N 44°02' E 010°02'0 0.0
2017-Nov-11 05:47N 44°02' E 010°02'0 0.0
2017-Nov-11 05:29N 44°02' E 010°02'0 0.0
2017-Nov-11 04:59N 44°02' E 010°02'0 0.0
2017-Nov-11 04:23N 44°02' E 010°02'0 0.0
2017-Nov-11 03:59N 44°02' E 010°02'0 0.0
2017-Nov-11 03:17N 44°02' E 010°02'0 0.0
2017-Nov-11 02:59N 44°02' E 010°02'0 0.0
2017-Nov-11 02:29N 44°02' E 010°02'0 0.0
2017-Nov-11 01:59N 44°02' E 010°02'0 0.0
2017-Nov-11 01:29N 44°02' E 010°02'0 0.0
2017-Nov-11 00:59N 44°02' E 010°02'0 0.0
2017-Nov-11 00:23N 44°02' E 010°02'0 0.0
2017-Nov-10 23:59N 44°02' E 010°02'0 0.0
2017-Nov-10 23:26N 44°02' E 010°02'0 0.0
2017-Nov-10 22:56N 44°02' E 010°02'0 0.0
2017-Nov-10 22:29N 44°02' E 010°02'0 0.0
2017-Nov-10 21:59N 44°02' E 010°02'0 0.0
2017-Nov-10 21:23N 44°02' E 010°02'0 0.0
2017-Nov-10 20:59N 44°02' E 010°02'0 0.0
2017-Nov-10 20:29N 44°02' E 010°02'0 0.0
2017-Nov-10 19:59N 44°02' E 010°02'0 0.0
2017-Nov-10 19:23N 44°02' E 010°02'0 0.0
2017-Nov-10 18:56N 44°02' E 010°02'0 0.0
2017-Nov-10 18:29N 44°02' E 010°02'0 0.0
2017-Nov-10 17:59N 44°02' E 010°02'0 0.0
2017-Nov-10 17:23N 44°02' E 010°02'0 0.0
2017-Nov-10 16:47N 44°02' E 010°02'0 0.0
2017-Nov-10 16:02N 44°02' E 010°02'0 0.0
2017-Nov-10 15:59N 44°02' E 010°02'0 0.0
2017-Nov-10 15:14N 44°02' E 010°02'0 0.0
2017-Nov-10 14:53N 44°02' E 010°02'0 0.0
2017-Nov-10 14:26N 44°02' E 010°02'0 0.0
2017-Nov-10 13:56N 44°02' E 010°02'0 0.0
2017-Nov-10 13:20N 44°02' E 010°02'0 0.0
2017-Nov-10 12:59N 44°02' E 010°02'0 0.0
2017-Nov-10 12:29N 44°02' E 010°02'0 0.0
2017-Nov-10 11:53N 44°02' E 010°02'0 0.0
2017-Nov-10 11:29N 44°02' E 010°02'0 0.0
2017-Nov-10 10:59N 44°02' E 010°02'0 0.0
2017-Nov-10 10:23N 44°02' E 010°02'0 0.0
2017-Nov-10 09:59N 44°02' E 010°02'0 0.0
2017-Nov-10 09:29N 44°02' E 010°02'0 0.0
2017-Nov-10 08:59N 44°02' E 010°02'0 0.0
2017-Nov-10 08:29N 44°02' E 010°02'0 0.0
2017-Nov-10 07:56N 44°02' E 010°02'0 0.0
2017-Nov-10 07:27N 44°02' E 010°02'0 0.0
2017-Nov-10 06:56N 44°02' E 010°02'0 0.0
2017-Nov-10 06:29N 44°02' E 010°02'0 0.0
2017-Nov-10 05:59N 44°02' E 010°02'0 0.0
2017-Nov-10 05:29N 44°02' E 010°02'0 0.0
2017-Nov-10 04:41N 44°02' E 010°02'0 0.0
2017-Nov-10 04:26N 44°02' E 010°02'0 0.0
2017-Nov-10 03:59N 44°02' E 010°02'0 0.0
2017-Nov-10 03:26N 44°02' E 010°02'0 0.0
2017-Nov-10 02:59N 44°02' E 010°02'0 0.0
2017-Nov-10 02:29N 44°02' E 010°02'0 0.0
2017-Nov-10 01:59N 44°02' E 010°02'0 0.0
2017-Nov-10 01:29N 44°02' E 010°02'0 0.0
2017-Nov-10 00:59N 44°02' E 010°02'0 0.0
2017-Nov-10 00:17N 44°02' E 010°02'0 0.0
2017-Nov-09 23:56N 44°02' E 010°02'0 0.0
2017-Nov-09 23:29N 44°02' E 010°02'0 0.0
2017-Nov-09 22:59N 44°02' E 010°02'0 0.0
2017-Nov-09 22:26N 44°02' E 010°02'0 0.0
2017-Nov-09 21:56N 44°02' E 010°02'0 0.0
2017-Nov-09 21:29N 44°02' E 010°02'0 0.0
2017-Nov-09 20:59N 44°02' E 010°02'0 0.0
2017-Nov-09 20:29N 44°02' E 010°02'0 0.0
2017-Nov-09 19:56N 44°02' E 010°02'0 0.0
2017-Nov-09 19:20N 44°02' E 010°02'0 0.0
2017-Nov-09 18:29N 44°02' E 010°02'0 0.0
2017-Nov-09 17:59N 44°02' E 010°02'0 0.0
2017-Nov-09 17:26N 44°02' E 010°02'0 0.0
2017-Nov-09 16:59N 44°02' E 010°02'0 0.0
2017-Nov-09 16:26N 44°02' E 010°02'0 0.0
2017-Nov-09 15:59N 44°02' E 010°02'0 0.0
2017-Nov-09 15:26N 44°02' E 010°02'0 0.0
2017-Nov-09 14:59N 44°02' E 010°02'0 0.0
2017-Nov-09 14:26N 44°02' E 010°02'0 0.0
2017-Nov-09 13:56N 44°02' E 010°02'0 0.0
2017-Nov-09 13:29N 44°02' E 010°02'0 0.0
2017-Nov-09 12:44N 44°02' E 010°02'0 0.0
2017-Nov-09 12:29N 44°02' E 010°02'0 0.0
2017-Nov-09 11:59N 44°02' E 010°02'0 0.0
2017-Nov-09 11:26N 44°02' E 010°02'0 0.0
2017-Nov-09 10:59N 44°02' E 010°02'0 0.0
2017-Nov-09 10:29N 44°02' E 010°02'0 0.0
2017-Nov-09 09:58N 44°02' E 010°02'0 0.0
2017-Nov-09 09:28N 44°02' E 010°02'0 0.0
2017-Nov-09 08:58N 44°02' E 010°02'0 0.0
2017-Nov-09 08:16N 44°02' E 010°02'0 0.0
2017-Nov-09 07:43N 44°02' E 010°02'0 0.0
2017-Nov-09 07:25N 44°02' E 010°02'0 0.0
2017-Nov-09 06:40N 44°02' E 010°02'0 0.0
2017-Nov-09 06:28N 44°02' E 010°02'0 0.0
2017-Nov-09 05:58N 44°02' E 010°02'0 0.0
2017-Nov-09 05:22N 44°02' E 010°02'0 0.0
2017-Nov-09 04:55N 44°02' E 010°02'0 0.0
2017-Nov-09 04:22N 44°02' E 010°02'0 0.0
2017-Nov-09 03:58N 44°02' E 010°02'0 0.0
2017-Nov-09 03:28N 44°02' E 010°02'0 0.0
2017-Nov-09 02:58N 44°02' E 010°02'0 0.0
2017-Nov-09 02:22N 44°02' E 010°02'0 0.0
2017-Nov-09 01:58N 44°02' E 010°02'0 0.0
2017-Nov-09 01:28N 44°02' E 010°02'0 0.0
2017-Nov-09 00:58N 44°02' E 010°02'0 0.0
2017-Nov-09 00:28N 44°02' E 010°02'0 0.0
2017-Nov-08 23:55N 44°02' E 010°02'0 0.0
2017-Nov-08 23:28N 44°02' E 010°02'0 0.0
2017-Nov-08 22:58N 44°02' E 010°02'0 0.0
2017-Nov-08 22:28N 44°02' E 010°02'0 0.0
2017-Nov-08 21:58N 44°02' E 010°02'0 0.0
2017-Nov-08 21:28N 44°02' E 010°02'0 0.0
2017-Nov-08 20:55N 44°02' E 010°02'0 0.0
2017-Nov-08 20:22N 44°02' E 010°02'0 0.0
2017-Nov-08 19:40N 44°02' E 010°02'0 0.0
2017-Nov-08 19:28N 44°02' E 010°02'0 0.0
2017-Nov-08 18:58N 44°02' E 010°02'0 0.0
2017-Nov-08 18:28N 44°02' E 010°02'0 0.0
2017-Nov-08 17:58N 44°02' E 010°02'0 0.0
2017-Nov-08 17:28N 44°02' E 010°02'0 0.0
2017-Nov-08 16:58N 44°02' E 010°02'0 0.0
2017-Nov-08 16:28N 44°02' E 010°02'0 0.0
2017-Nov-08 15:58N 44°02' E 010°02'0 0.0
2017-Nov-08 15:22N 44°02' E 010°02'0 0.0
2017-Nov-08 14:58N 44°02' E 010°02'0 0.0
2017-Nov-08 14:22N 44°02' E 010°02'0 0.0
2017-Nov-08 13:52N 44°02' E 010°02'0 0.0
2017-Nov-08 13:28N 44°02' E 010°02'0 0.0
2017-Nov-08 12:58N 44°02' E 010°02'0 0.0
2017-Nov-08 12:28N 44°02' E 010°02'0 0.0
2017-Nov-08 11:49N 44°02' E 010°02'0 0.0
2017-Nov-08 11:16N 44°02' E 010°02'0 0.0
2017-Nov-08 10:55N 44°02' E 010°02'0 0.0
2017-Nov-08 10:25N 44°02' E 010°02'0 0.0
2017-Nov-08 09:28N 44°02' E 010°02'0 0.0
2017-Nov-08 08:55N 44°02' E 010°02'0 0.0
2017-Nov-08 08:28N 44°02' E 010°02'0 0.0
2017-Nov-08 07:58N 44°02' E 010°02'0 0.0
2017-Nov-08 07:28N 44°02' E 010°02'0 0.0
2017-Nov-08 06:58N 44°02' E 010°02'0 0.0
2017-Nov-08 06:25N 44°02' E 010°02'0 0.0
2017-Nov-08 05:52N 44°02' E 010°02'0 0.0
2017-Nov-08 05:28N 44°02' E 010°02'0 0.0
2017-Nov-08 04:58N 44°02' E 010°02'0 0.0
2017-Nov-08 04:19N 44°02' E 010°02'0 0.0
2017-Nov-08 03:58N 44°02' E 010°02'0 0.0
2017-Nov-08 03:25N 44°02' E 010°02'0 0.0
2017-Nov-08 02:58N 44°02' E 010°02'0 0.0
2017-Nov-08 02:28N 44°02' E 010°02'0 0.0
2017-Nov-08 01:58N 44°02' E 010°02'0 0.0
2017-Nov-08 01:28N 44°02' E 010°02'0 0.0
2017-Nov-08 00:55N 44°02' E 010°02'0 0.0
2017-Nov-08 00:28N 44°02' E 010°02'0 0.0
2017-Nov-07 23:58N 44°02' E 010°02'0 0.0
2017-Nov-07 23:28N 44°02' E 010°02'0 0.0
2017-Nov-07 22:55N 44°02' E 010°02'0 0.0
2017-Nov-07 22:25N 44°02' E 010°02'0 0.0
2017-Nov-07 21:58N 44°02' E 010°02'0 0.0
2017-Nov-07 21:25N 44°02' E 010°02'0 0.0
2017-Nov-07 20:58N 44°02' E 010°02'0 0.0
2017-Nov-07 20:28N 44°02' E 010°02'0 0.0
2017-Nov-07 19:58N 44°02' E 010°02'0 0.0
2017-Nov-07 19:28N 44°02' E 010°02'0 0.0
2017-Nov-07 18:58N 44°02' E 010°02'0 0.0
2017-Nov-07 18:10N 44°02' E 010°02'0 0.0
2017-Nov-07 17:52N 44°02' E 010°02'0 0.0
2017-Nov-07 17:28N 44°02' E 010°02'0 0.0
2017-Nov-07 16:40N 44°02' E 010°02'0 0.0
2017-Nov-07 16:22N 44°02' E 010°02'0 0.0
2017-Nov-07 15:46N 44°02' E 010°02'0 0.0
2017-Nov-07 15:22N 44°02' E 010°02'0 0.0
2017-Nov-07 14:40N 44°02' E 010°02'0 0.0
2017-Nov-07 14:19N 44°02' E 010°02'0 0.0
2017-Nov-07 13:58N 44°02' E 010°02'0 0.0
2017-Nov-07 13:22N 44°02' E 010°02'0 0.0
2017-Nov-07 12:34N 44°02' E 010°02'0 0.0
2017-Nov-07 12:10N 44°02' E 010°02'0 0.0
2017-Nov-07 11:40N 44°02' E 010°02'0 0.0
2017-Nov-07 11:22N 44°02' E 010°02'0 0.0
2017-Nov-07 10:52N 44°02' E 010°02'0 0.0
2017-Nov-07 09:43N 44°02' E 010°02'0 0.0
2017-Nov-07 09:22N 44°02' E 010°02'0 0.0
2017-Nov-07 08:49N 44°02' E 010°02'0 0.0
2017-Nov-07 08:25N 44°02' E 010°02'0 0.0
2017-Nov-07 07:55N 44°02' E 010°02'0 0.0
2017-Nov-07 07:28N 44°02' E 010°02'0 0.0
2017-Nov-07 06:55N 44°02' E 010°02'0 0.0
2017-Nov-07 06:28N 44°02' E 010°02'0 0.0
2017-Nov-07 05:58N 44°02' E 010°02'0 0.0
2017-Nov-07 05:28N 44°02' E 010°02'0 0.0
2017-Nov-07 04:55N 44°02' E 010°02'0 0.0
2017-Nov-07 04:22N 44°02' E 010°02'0 0.0
2017-Nov-07 03:58N 44°02' E 010°02'0 0.0
2017-Nov-07 03:28N 44°02' E 010°02'0 0.0
2017-Nov-07 02:58N 44°02' E 010°02'0 0.0
2017-Nov-07 02:19N 44°02' E 010°02'0 0.0
2017-Nov-07 01:43N 44°02' E 010°02'0 0.0
2017-Nov-07 01:28N 44°02' E 010°02'0 0.0
2017-Nov-07 00:49N 44°02' E 010°02'0 0.0
2017-Nov-07 00:22N 44°02' E 010°02'0 0.0
2017-Nov-06 23:58N 44°02' E 010°02'0 0.0
2017-Nov-06 23:22N 44°02' E 010°02'0 0.0
2017-Nov-06 22:58N 44°02' E 010°02'0 0.0
2017-Nov-06 22:22N 44°02' E 010°02'0 0.0
2017-Nov-06 21:58N 44°02' E 010°02'0 0.0
2017-Nov-06 21:28N 44°02' E 010°02'0 0.0
2017-Nov-06 20:58N 44°02' E 010°02'0 0.0
2017-Nov-06 20:13N 44°02' E 010°02'0 0.0
2017-Nov-06 02:28N 44°02' E 010°02'0 0.0
2017-Nov-06 01:52N 44°02' E 010°02'0 0.0
2017-Nov-06 01:25N 44°02' E 010°02'0 0.0
2017-Nov-06 00:58N 44°02' E 010°02'0 0.0
2017-Nov-06 00:28N 44°02' E 010°02'0 0.0
2017-Nov-05 23:58N 44°02' E 010°02'0 0.0
2017-Nov-05 23:28N 44°02' E 010°02'0 0.0
2017-Nov-05 22:58N 44°02' E 010°02'0 0.0
2017-Nov-05 22:28N 44°02' E 010°02'0 0.0
2017-Nov-05 21:58N 44°02' E 010°02'0 0.0
2017-Nov-05 21:28N 44°02' E 010°02'0 0.0
2017-Nov-05 20:58N 44°02' E 010°02'0 0.0
2017-Nov-05 20:28N 44°02' E 010°02'0 0.0
2017-Nov-05 19:58N 44°02' E 010°02'0 0.0
2017-Nov-05 19:25N 44°02' E 010°02'0 0.0
2017-Nov-05 18:58N 44°02' E 010°02'0 0.0
2017-Nov-05 18:25N 44°02' E 010°02'0 0.0
2017-Nov-05 17:58N 44°02' E 010°02'0 0.0
2017-Nov-05 17:28N 44°02' E 010°02'0 0.0
2017-Nov-05 16:58N 44°02' E 010°02'0 0.0
2017-Nov-05 16:28N 44°02' E 010°02'0 0.0
2017-Nov-05 15:55N 44°02' E 010°02'0 0.0
2017-Nov-05 15:28N 44°02' E 010°02'0 0.0
2017-Nov-05 14:58N 44°02' E 010°02'0 0.0
2017-Nov-05 14:28N 44°02' E 010°02'0 0.0
2017-Nov-05 13:58N 44°02' E 010°02'0 0.0
2017-Nov-05 13:28N 44°02' E 010°02'0 0.0
2017-Nov-05 12:58N 44°02' E 010°02'0 0.0
2017-Nov-05 12:28N 44°02' E 010°02'0 0.0
2017-Nov-05 11:58N 44°02' E 010°02'0 0.0
2017-Nov-05 11:28N 44°02' E 010°02'0 0.0
2017-Nov-05 10:52N 44°02' E 010°02'0 0.0
2017-Nov-05 10:28N 44°02' E 010°02'0 0.0
2017-Nov-05 09:58N 44°02' E 010°02'0 0.0
2017-Nov-05 09:28N 44°02' E 010°02'0 0.0
2017-Nov-05 08:55N 44°02' E 010°02'0 0.0
2017-Nov-05 08:28N 44°02' E 010°02'0 0.0
2017-Nov-05 07:58N 44°02' E 010°02'0 0.0
2017-Nov-05 07:28N 44°02' E 010°02'0 0.0
2017-Nov-05 06:58N 44°02' E 010°02'0 0.0
2017-Nov-05 06:28N 44°02' E 010°02'0 0.0
2017-Nov-05 05:58N 44°02' E 010°02'0 0.0
2017-Nov-05 05:28N 44°02' E 010°02'0 0.0
2017-Nov-05 04:58N 44°02' E 010°02'0 0.0
2017-Nov-05 04:28N 44°02' E 010°02'0 0.0
2017-Nov-05 03:58N 44°02' E 010°02'0 0.0
2017-Nov-05 03:28N 44°02' E 010°02'0 0.0
2017-Nov-05 02:58N 44°02' E 010°02'0 0.0
2017-Nov-05 02:28N 44°02' E 010°02'0 0.0
2017-Nov-05 01:58N 44°02' E 010°02'0 0.0
2017-Nov-05 01:22N 44°02' E 010°02'0 0.0
2017-Nov-05 00:58N 44°02' E 010°02'0 0.0
2017-Nov-05 00:28N 44°02' E 010°02'0 0.0
2017-Nov-04 23:58N 44°02' E 010°02'0 0.0
2017-Nov-04 23:28N 44°02' E 010°02'0 0.0
2017-Nov-04 22:55N 44°02' E 010°02'0 0.0
2017-Nov-04 22:25N 44°02' E 010°02'0 0.0
2017-Nov-04 21:58N 44°02' E 010°02'0 0.0
2017-Nov-04 21:28N 44°02' E 010°02'0 0.0
2017-Nov-04 20:58N 44°02' E 010°02'0 0.0
2017-Nov-04 20:28N 44°02' E 010°02'0 0.0
2017-Nov-04 19:58N 44°02' E 010°02'0 0.0
2017-Nov-04 19:19N 44°02' E 010°02'0 0.0
2017-Nov-04 18:58N 44°02' E 010°02'0 0.0
2017-Nov-04 18:28N 44°02' E 010°02'0 0.0
2017-Nov-04 17:52N 44°02' E 010°02'0 0.0
2017-Nov-04 17:28N 44°02' E 010°02'0 0.0
2017-Nov-04 16:58N 44°02' E 010°02'0 0.0
2017-Nov-04 16:28N 44°02' E 010°02'0 0.0
2017-Nov-04 15:55N 44°02' E 010°02'0 0.0
2017-Nov-04 15:07N 44°02' E 010°02'0 0.0
2017-Nov-04 14:58N 44°02' E 010°02'0 0.0
2017-Nov-04 14:28N 44°02' E 010°02'0 0.0
2017-Nov-04 13:49N 44°02' E 010°02'0 0.0
2017-Nov-04 13:28N 44°02' E 010°02'0 0.0
2017-Nov-04 12:58N 44°02' E 010°02'0 0.0
2017-Nov-04 12:25N 44°02' E 010°02'0 0.0
2017-Nov-04 11:58N 44°02' E 010°02'0 0.0
2017-Nov-04 11:28N 44°02' E 010°02'0 0.0
2017-Nov-04 10:58N 44°02' E 010°02'0 0.0
2017-Nov-04 10:28N 44°02' E 010°02'0 0.0
2017-Nov-04 09:55N 44°02' E 010°02'0 0.0
2017-Nov-04 09:28N 44°02' E 010°02'0 0.0
2017-Nov-04 08:58N 44°02' E 010°02'0 0.0
2017-Nov-04 08:28N 44°02' E 010°02'0 0.0
2017-Nov-04 07:55N 44°02' E 010°02'0 0.0
2017-Nov-04 07:28N 44°02' E 010°02'0 0.0
2017-Nov-04 06:58N 44°02' E 010°02'0 0.0
2017-Nov-04 06:28N 44°02' E 010°02'0 0.0
2017-Nov-04 05:55N 44°02' E 010°02'0 0.0
2017-Nov-04 05:28N 44°02' E 010°02'0 0.0
2017-Nov-04 04:58N 44°02' E 010°02'0 0.0
2017-Nov-04 04:25N 44°02' E 010°02'0 0.0
2017-Nov-04 03:58N 44°02' E 010°02'0 0.0
2017-Nov-04 03:25N 44°02' E 010°02'0 0.0
2017-Nov-04 02:49N 44°02' E 010°02'0 0.0
2017-Nov-04 02:25N 44°02' E 010°02'0 0.0
2017-Nov-04 01:40N 44°02' E 010°02'0 0.0
2017-Nov-04 01:22N 44°02' E 010°02'0 0.0
2017-Nov-04 00:55N 44°02' E 010°02'0 0.0
2017-Nov-04 00:22N 44°02' E 010°02'0 0.0
2017-Nov-03 23:55N 44°02' E 010°02'0 0.0
2017-Nov-03 23:25N 44°02' E 010°02'0 0.0
2017-Nov-03 22:58N 44°02' E 010°02'0 0.0
2017-Nov-03 22:25N 44°02' E 010°02'0 0.0
2017-Nov-03 21:58N 44°02' E 010°02'0 0.0
2017-Nov-03 21:28N 44°02' E 010°02'0 0.0
2017-Nov-03 20:58N 44°02' E 010°02'0 0.0
2017-Nov-03 20:28N 44°02' E 010°02'0 0.0
2017-Nov-03 19:58N 44°02' E 010°02'0 0.0
2017-Nov-03 19:28N 44°02' E 010°02'0 0.0
2017-Nov-03 18:55N 44°02' E 010°02'0 0.0
2017-Nov-03 18:28N 44°02' E 010°02'0 0.0
2017-Nov-03 17:52N 44°02' E 010°02'0 0.0
2017-Nov-03 17:28N 44°02' E 010°02'0 0.0
2017-Nov-03 16:58N 44°02' E 010°02'0 0.0
2017-Nov-03 16:13N 44°02' E 010°02'0 0.0
2017-Nov-03 15:58N 44°02' E 010°02'0 0.0
2017-Nov-03 15:25N 44°02' E 010°02'0 0.0
2017-Nov-03 14:55N 44°02' E 010°02'0 0.0
2017-Nov-03 14:28N 44°02' E 010°02'0 0.0
2017-Nov-03 13:58N 44°02' E 010°02'0 0.0
2017-Nov-03 13:28N 44°02' E 010°02'0 0.0
2017-Nov-03 12:55N 44°02' E 010°02'0 0.0
2017-Nov-03 12:28N 44°02' E 010°02'0 0.0
2017-Nov-03 11:58N 44°02' E 010°02'0 0.0
2017-Nov-03 11:25N 44°02' E 010°02'0 0.0
2017-Nov-03 10:55N 44°02' E 010°02'0 0.0
2017-Nov-03 10:16N 44°02' E 010°02'0 0.0
2017-Nov-03 09:58N 44°02' E 010°02'0 0.0
2017-Nov-03 09:25N 44°02' E 010°02'0 0.0
2017-Nov-03 08:58N 44°02' E 010°02'0 0.0
2017-Nov-03 08:22N 44°02' E 010°02'0 0.0
2017-Nov-03 07:58N 44°02' E 010°02'0 0.0
2017-Nov-03 07:28N 44°02' E 010°02'0 0.0
2017-Nov-03 06:55N 44°02' E 010°02'0 0.0
2017-Nov-03 06:28N 44°02' E 010°02'0 0.0
2017-Nov-03 05:58N 44°02' E 010°02'0 0.0
2017-Nov-03 05:28N 44°02' E 010°02'0 0.0
2017-Nov-03 04:58N 44°02' E 010°02'0 0.0
2017-Nov-03 04:28N 44°02' E 010°02'0 0.0
2017-Nov-03 03:55N 44°02' E 010°02'0 0.0
2017-Nov-03 03:28N 44°02' E 010°02'0 0.0
2017-Nov-03 02:55N 44°02' E 010°02'0 0.0
2017-Nov-03 02:25N 44°02' E 010°02'0 0.0
2017-Nov-03 01:55N 44°02' E 010°02'0 0.0
2017-Nov-03 01:28N 44°02' E 010°02'0 0.0
2017-Nov-03 00:58N 44°02' E 010°02'0 0.0
2017-Nov-03 00:28N 44°02' E 010°02'0 0.0
2017-Nov-02 23:58N 44°02' E 010°02'0 0.0
2017-Nov-02 23:28N 44°02' E 010°02'0 0.0
2017-Nov-02 22:55N 44°02' E 010°02'0 0.0
2017-Nov-02 22:28N 44°02' E 010°02'0 0.0
2017-Nov-02 21:49N 44°02' E 010°02'0 0.0
2017-Nov-02 21:25N 44°02' E 010°02'0 0.0
2017-Nov-02 20:58N 44°02' E 010°02'0 0.0
2017-Nov-02 20:28N 44°02' E 010°02'0 0.0
2017-Nov-02 19:58N 44°02' E 010°02'0 0.0
2017-Nov-02 19:28N 44°02' E 010°02'0 0.0
2017-Nov-02 18:58N 44°02' E 010°02'0 0.0
2017-Nov-02 18:28N 44°02' E 010°02'0 0.0
2017-Nov-02 17:58N 44°02' E 010°02'0 0.0
2017-Nov-02 17:25N 44°02' E 010°02'0 0.0
2017-Nov-02 16:58N 44°02' E 010°02'0 0.0
2017-Nov-02 16:28N 44°02' E 010°02'0 0.0
2017-Nov-02 15:58N 44°02' E 010°02'0 0.0
2017-Nov-02 15:28N 44°02' E 010°02'0 0.0
2017-Nov-02 14:52N 44°02' E 010°02'0 0.0
2017-Nov-02 14:22N 44°02' E 010°02'0 0.0
2017-Nov-02 13:58N 44°02' E 010°02'0 0.0
2017-Nov-02 13:28N 44°02' E 010°02'0 0.0
2017-Nov-02 12:55N 44°02' E 010°02'0 0.0
2017-Nov-02 12:28N 44°02' E 010°02'0 0.0
2017-Nov-02 11:55N 44°02' E 010°02'0 0.0
2017-Nov-02 11:25N 44°02' E 010°02'0 0.0
2017-Nov-02 10:58N 44°02' E 010°02'0 0.0
2017-Nov-02 10:28N 44°02' E 010°02'0 0.0
2017-Nov-02 09:55N 44°02' E 010°02'0 0.0
2017-Nov-02 09:28N 44°02' E 010°02'0 0.0
2017-Nov-02 08:58N 44°02' E 010°02'0 0.0
2017-Nov-02 08:28N 44°02' E 010°02'0 0.0
2017-Nov-02 07:52N 44°02' E 010°02'0 0.0
2017-Nov-02 07:28N 44°02' E 010°02'0 0.0
2017-Nov-02 06:58N 44°02' E 010°02'0 0.0
2017-Nov-02 06:28N 44°02' E 010°02'0 0.0
2017-Nov-02 05:58N 44°02' E 010°02'0 0.0
2017-Nov-02 05:28N 44°02' E 010°02'0 0.0
2017-Nov-02 04:55N 44°02' E 010°02'0 0.0
2017-Nov-02 04:28N 44°02' E 010°02'0 0.0
2017-Nov-02 03:58N 44°02' E 010°02'0 0.0
2017-Nov-02 03:22N 44°02' E 010°02'0 0.0
2017-Nov-02 02:58N 44°02' E 010°02'0 0.0
2017-Nov-02 02:28N 44°02' E 010°02'0 0.0
2017-Nov-02 01:58N 44°02' E 010°02'0 0.0
2017-Nov-02 01:25N 44°02' E 010°02'0 0.0
2017-Nov-02 00:58N 44°02' E 010°02'0 0.0
2017-Nov-02 00:28N 44°02' E 010°02'0 0.0
2017-Nov-01 23:55N 44°02' E 010°02'0 0.0
2017-Nov-01 23:28N 44°02' E 010°02'0 0.0
2017-Nov-01 22:58N 44°02' E 010°02'0 0.0
2017-Nov-01 22:28N 44°02' E 010°02'0 0.0
2017-Nov-01 21:58N 44°02' E 010°02'0 0.0
2017-Nov-01 21:28N 44°02' E 010°02'0 0.0
2017-Nov-01 20:58N 44°02' E 010°02'0 0.0
2017-Nov-01 20:25N 44°02' E 010°02'0 0.0
2017-Nov-01 19:55N 44°02' E 010°02'0 0.0
2017-Nov-01 19:28N 44°02' E 010°02'0 0.0
2017-Nov-01 18:58N 44°02' E 010°02'0 0.0
2017-Nov-01 18:28N 44°02' E 010°02'  
Track history (hours):
 
Tides and Currents Weather Stations Pressure Air Temp Water Temp Dewpoint Dewpoint Depression Visibility Wind Speed Wind Dir Waves Ship Positions

Inmocean

Last reported at 2017-Nov-11 14:05 UTC. Time now 2017-Nov-20 07:47 UTC.
Position N 43°09' E 009°47'.
Warning: this ship's position is 8 days out of date.

Type: Sailing vessel. MMSI: 319120000.

Date/timePositionNaut miles runAvg speedWind from/ knotsBaromVisibWave heightAir tempDewpointWater temp
2017-Nov-11 14:05N 43°09' E 009°47'1 8.7
2017-Nov-11 13:58N 43°09' E 009°47'4 8.7
2017-Nov-11 13:30N 43°12' E 009°51'4 8.9
2017-Nov-11 13:00N 43°16' E 009°54'5 9.7
2017-Nov-11 12:30N 43°21' E 009°54'5 9.7
2017-Nov-11 12:00N 43°26' E 009°55'5 9.0
2017-Nov-11 11:30N 43°31' E 009°55'4 8.9
2017-Nov-11 11:00N 43°35' E 009°56'5 8.9
2017-Nov-11 10:28N 43°40' E 009°56'4 8.9
2017-Nov-11 09:59N 43°44' E 009°57'5 9.0
2017-Nov-11 09:25N 43°49' E 009°59'4 8.9
2017-Nov-11 08:59N 43°53' E 010°01'4 9.1
2017-Nov-11 08:30N 43°57' E 010°02'4 8.1
2017-Nov-11 08:00N 44°01' E 010°03'1 2.5
2017-Nov-11 07:29N 44°02' E 010°02'0 0.0
2017-Nov-11 06:59N 44°02' E 010°02'0 0.0
2017-Nov-11 06:20N 44°02' E 010°02'0 0.0
2017-Nov-11 05:47N 44°02' E 010°02'0 0.0
2017-Nov-11 05:29N 44°02' E 010°02'0 0.0
2017-Nov-11 04:59N 44°02' E 010°02'0 0.0
2017-Nov-11 04:23N 44°02' E 010°02'0 0.0
2017-Nov-11 03:59N 44°02' E 010°02'0 0.0
2017-Nov-11 03:17N 44°02' E 010°02'0 0.0
2017-Nov-11 02:59N 44°02' E 010°02'0 0.0
2017-Nov-11 02:29N 44°02' E 010°02'0 0.0
2017-Nov-11 01:59N 44°02' E 010°02'0 0.0
2017-Nov-11 01:29N 44°02' E 010°02'0 0.0
2017-Nov-11 00:59N 44°02' E 010°02'0 0.0
2017-Nov-11 00:23N 44°02' E 010°02'0 0.0
2017-Nov-10 23:59N 44°02' E 010°02'0 0.0
2017-Nov-10 23:26N 44°02' E 010°02'0 0.0
2017-Nov-10 22:56N 44°02' E 010°02'0 0.0
2017-Nov-10 22:29N 44°02' E 010°02'0 0.0
2017-Nov-10 21:59N 44°02' E 010°02'0 0.0
2017-Nov-10 21:23N 44°02' E 010°02'0 0.0
2017-Nov-10 20:59N 44°02' E 010°02'0 0.0
2017-Nov-10 20:29N 44°02' E 010°02'0 0.0
2017-Nov-10 19:59N 44°02' E 010°02'0 0.0
2017-Nov-10 19:23N 44°02' E 010°02'0 0.0
2017-Nov-10 18:56N 44°02' E 010°02'0 0.0
2017-Nov-10 18:29N 44°02' E 010°02'0 0.0
2017-Nov-10 17:59N 44°02' E 010°02'0 0.0
2017-Nov-10 17:23N 44°02' E 010°02'0 0.0
2017-Nov-10 16:47N 44°02' E 010°02'0 0.0
2017-Nov-10 16:02N 44°02' E 010°02'0 0.0
2017-Nov-10 15:59N 44°02' E 010°02'0 0.0
2017-Nov-10 15:14N 44°02' E 010°02'0 0.0
2017-Nov-10 14:53N 44°02' E 010°02'0 0.0
2017-Nov-10 14:26N 44°02' E 010°02'0 0.0
2017-Nov-10 13:56N 44°02' E 010°02'0 0.0
2017-Nov-10 13:20N 44°02' E 010°02'0 0.0
2017-Nov-10 12:59N 44°02' E 010°02'0 0.0
2017-Nov-10 12:29N 44°02' E 010°02'0 0.0
2017-Nov-10 11:53N 44°02' E 010°02'0 0.0
2017-Nov-10 11:29N 44°02' E 010°02'0 0.0
2017-Nov-10 10:59N 44°02' E 010°02'0 0.0
2017-Nov-10 10:23N 44°02' E 010°02'0 0.0
2017-Nov-10 09:59N 44°02' E 010°02'0 0.0
2017-Nov-10 09:29N 44°02' E 010°02'0 0.0
2017-Nov-10 08:59N 44°02' E 010°02'0 0.0
2017-Nov-10 08:29N 44°02' E 010°02'0 0.0
2017-Nov-10 07:56N 44°02' E 010°02'0 0.0
2017-Nov-10 07:27N 44°02' E 010°02'0 0.0
2017-Nov-10 06:56N 44°02' E 010°02'0 0.0
2017-Nov-10 06:29N 44°02' E 010°02'0 0.0
2017-Nov-10 05:59N 44°02' E 010°02'0 0.0
2017-Nov-10 05:29N 44°02' E 010°02'0 0.0
2017-Nov-10 04:41N 44°02' E 010°02'0 0.0
2017-Nov-10 04:26N 44°02' E 010°02'0 0.0
2017-Nov-10 03:59N 44°02' E 010°02'0 0.0
2017-Nov-10 03:26N 44°02' E 010°02'0 0.0
2017-Nov-10 02:59N 44°02' E 010°02'0 0.0
2017-Nov-10 02:29N 44°02' E 010°02'0 0.0
2017-Nov-10 01:59N 44°02' E 010°02'0 0.0
2017-Nov-10 01:29N 44°02' E 010°02'0 0.0
2017-Nov-10 00:59N 44°02' E 010°02'0 0.0
2017-Nov-10 00:17N 44°02' E 010°02'0 0.0
2017-Nov-09 23:56N 44°02' E 010°02'0 0.0
2017-Nov-09 23:29N 44°02' E 010°02'0 0.0
2017-Nov-09 22:59N 44°02' E 010°02'0 0.0
2017-Nov-09 22:26N 44°02' E 010°02'0 0.0
2017-Nov-09 21:56N 44°02' E 010°02'0 0.0
2017-Nov-09 21:29N 44°02' E 010°02'0 0.0
2017-Nov-09 20:59N 44°02' E 010°02'0 0.0
2017-Nov-09 20:29N 44°02' E 010°02'0 0.0
2017-Nov-09 19:56N 44°02' E 010°02'0 0.0
2017-Nov-09 19:20N 44°02' E 010°02'0 0.0
2017-Nov-09 18:29N 44°02' E 010°02'0 0.0
2017-Nov-09 17:59N 44°02' E 010°02'0 0.0
2017-Nov-09 17:26N 44°02' E 010°02'0 0.0
2017-Nov-09 16:59N 44°02' E 010°02'0 0.0
2017-Nov-09 16:26N 44°02' E 010°02'0 0.0
2017-Nov-09 15:59N 44°02' E 010°02'0 0.0
2017-Nov-09 15:26N 44°02' E 010°02'0 0.0
2017-Nov-09 14:59N 44°02' E 010°02'0 0.0
2017-Nov-09 14:26N 44°02' E 010°02'0 0.0
2017-Nov-09 13:56N 44°02' E 010°02'0 0.0
2017-Nov-09 13:29N 44°02' E 010°02'0 0.0
2017-Nov-09 12:44N 44°02' E 010°02'0 0.0
2017-Nov-09 12:29N 44°02' E 010°02'0 0.0
2017-Nov-09 11:59N 44°02' E 010°02'0 0.0
2017-Nov-09 11:26N 44°02' E 010°02'0 0.0
2017-Nov-09 10:59N 44°02' E 010°02'0 0.0
2017-Nov-09 10:29N 44°02' E 010°02'0 0.0
2017-Nov-09 09:58N 44°02' E 010°02'0 0.0
2017-Nov-09 09:28N 44°02' E 010°02'0 0.0
2017-Nov-09 08:58N 44°02' E 010°02'0 0.0
2017-Nov-09 08:16N 44°02' E 010°02'0 0.0
2017-Nov-09 07:43N 44°02' E 010°02'0 0.0
2017-Nov-09 07:25N 44°02' E 010°02'0 0.0
2017-Nov-09 06:40N 44°02' E 010°02'0 0.0
2017-Nov-09 06:28N 44°02' E 010°02'0 0.0
2017-Nov-09 05:58N 44°02' E 010°02'0 0.0
2017-Nov-09 05:22N 44°02' E 010°02'0 0.0
2017-Nov-09 04:55N 44°02' E 010°02'0 0.0
2017-Nov-09 04:22N 44°02' E 010°02'0 0.0
2017-Nov-09 03:58N 44°02' E 010°02'0 0.0
2017-Nov-09 03:28N 44°02' E 010°02'0 0.0
2017-Nov-09 02:58N 44°02' E 010°02'0 0.0
2017-Nov-09 02:22N 44°02' E 010°02'0 0.0
2017-Nov-09 01:58N 44°02' E 010°02'0 0.0
2017-Nov-09 01:28N 44°02' E 010°02'0 0.0
2017-Nov-09 00:58N 44°02' E 010°02'0 0.0
2017-Nov-09 00:28N 44°02' E 010°02'0 0.0
2017-Nov-08 23:55N 44°02' E 010°02'0 0.0
2017-Nov-08 23:28N 44°02' E 010°02'0 0.0
2017-Nov-08 22:58N 44°02' E 010°02'0 0.0
2017-Nov-08 22:28N 44°02' E 010°02'0 0.0
2017-Nov-08 21:58N 44°02' E 010°02'0 0.0
2017-Nov-08 21:28N 44°02' E 010°02'0 0.0
2017-Nov-08 20:55N 44°02' E 010°02'0 0.0
2017-Nov-08 20:22N 44°02' E 010°02'0 0.0
2017-Nov-08 19:40N 44°02' E 010°02'0 0.0
2017-Nov-08 19:28N 44°02' E 010°02'0 0.0
2017-Nov-08 18:58N 44°02' E 010°02'0 0.0
2017-Nov-08 18:28N 44°02' E 010°02'0 0.0
2017-Nov-08 17:58N 44°02' E 010°02'0 0.0
2017-Nov-08 17:28N 44°02' E 010°02'0 0.0
2017-Nov-08 16:58N 44°02' E 010°02'0 0.0
2017-Nov-08 16:28N 44°02' E 010°02'0 0.0
2017-Nov-08 15:58N 44°02' E 010°02'0 0.0
2017-Nov-08 15:22N 44°02' E 010°02'0 0.0
2017-Nov-08 14:58N 44°02' E 010°02'0 0.0
2017-Nov-08 14:22N 44°02' E 010°02'0 0.0
2017-Nov-08 13:52N 44°02' E 010°02'0 0.0
2017-Nov-08 13:28N 44°02' E 010°02'0 0.0
2017-Nov-08 12:58N 44°02' E 010°02'0 0.0
2017-Nov-08 12:28N 44°02' E 010°02'0 0.0
2017-Nov-08 11:49N 44°02' E 010°02'0 0.0
2017-Nov-08 11:16N 44°02' E 010°02'0 0.0
2017-Nov-08 10:55N 44°02' E 010°02'0 0.0
2017-Nov-08 10:25N 44°02' E 010°02'0 0.0
2017-Nov-08 09:28N 44°02' E 010°02'0 0.0
2017-Nov-08 08:55N 44°02' E 010°02'0 0.0
2017-Nov-08 08:28N 44°02' E 010°02'0 0.0
2017-Nov-08 07:58N 44°02' E 010°02'0 0.0
2017-Nov-08 07:28N 44°02' E 010°02'0 0.0
2017-Nov-08 06:58N 44°02' E 010°02'0 0.0
2017-Nov-08 06:25N 44°02' E 010°02'0 0.0
2017-Nov-08 05:52N 44°02' E 010°02'0 0.0
2017-Nov-08 05:28N 44°02' E 010°02'0 0.0
2017-Nov-08 04:58N 44°02' E 010°02'0 0.0
2017-Nov-08 04:19N 44°02' E 010°02'0 0.0
2017-Nov-08 03:58N 44°02' E 010°02'0 0.0
2017-Nov-08 03:25N 44°02' E 010°02'0 0.0
2017-Nov-08 02:58N 44°02' E 010°02'0 0.0
2017-Nov-08 02:28N 44°02' E 010°02'0 0.0
2017-Nov-08 01:58N 44°02' E 010°02'0 0.0
2017-Nov-08 01:28N 44°02' E 010°02'0 0.0
2017-Nov-08 00:55N 44°02' E 010°02'0 0.0
2017-Nov-08 00:28N 44°02' E 010°02'0 0.0
2017-Nov-07 23:58N 44°02' E 010°02'0 0.0
2017-Nov-07 23:28N 44°02' E 010°02'0 0.0
2017-Nov-07 22:55N 44°02' E 010°02'0 0.0
2017-Nov-07 22:25N 44°02' E 010°02'0 0.0
2017-Nov-07 21:58N 44°02' E 010°02'0 0.0
2017-Nov-07 21:25N 44°02' E 010°02'0 0.0
2017-Nov-07 20:58N 44°02' E 010°02'0 0.0
2017-Nov-07 20:28N 44°02' E 010°02'0 0.0
2017-Nov-07 19:58N 44°02' E 010°02'0 0.0
2017-Nov-07 19:28N 44°02' E 010°02'0 0.0
2017-Nov-07 18:58N 44°02' E 010°02'0 0.0
2017-Nov-07 18:10N 44°02' E 010°02'0 0.0
2017-Nov-07 17:52N 44°02' E 010°02'0 0.0
2017-Nov-07 17:28N 44°02' E 010°02'0 0.0
2017-Nov-07 16:40N 44°02' E 010°02'0 0.0
2017-Nov-07 16:22N 44°02' E 010°02'0 0.0
2017-Nov-07 15:46N 44°02' E 010°02'0 0.0
2017-Nov-07 15:22N 44°02' E 010°02'0 0.0
2017-Nov-07 14:40N 44°02' E 010°02'0 0.0
2017-Nov-07 14:19N 44°02' E 010°02'0 0.0
2017-Nov-07 13:58N 44°02' E 010°02'0 0.0
2017-Nov-07 13:22N 44°02' E 010°02'0 0.0
2017-Nov-07 12:34N 44°02' E 010°02'0 0.0
2017-Nov-07 12:10N 44°02' E 010°02'0 0.0
2017-Nov-07 11:40N 44°02' E 010°02'0 0.0
2017-Nov-07 11:22N 44°02' E 010°02'0 0.0
2017-Nov-07 10:52N 44°02' E 010°02'0 0.0
2017-Nov-07 09:43N 44°02' E 010°02'0 0.0
2017-Nov-07 09:22N 44°02' E 010°02'0 0.0
2017-Nov-07 08:49N 44°02' E 010°02'0 0.0
2017-Nov-07 08:25N 44°02' E 010°02'0 0.0
2017-Nov-07 07:55N 44°02' E 010°02'0 0.0
2017-Nov-07 07:28N 44°02' E 010°02'0 0.0
2017-Nov-07 06:55N 44°02' E 010°02'0 0.0
2017-Nov-07 06:28N 44°02' E 010°02'0 0.0
2017-Nov-07 05:58N 44°02' E 010°02'0 0.0
2017-Nov-07 05:28N 44°02' E 010°02'0 0.0
2017-Nov-07 04:55N 44°02' E 010°02'0 0.0
2017-Nov-07 04:22N 44°02' E 010°02'0 0.0
2017-Nov-07 03:58N 44°02' E 010°02'0 0.0
2017-Nov-07 03:28N 44°02' E 010°02'0 0.0
2017-Nov-07 02:58N 44°02' E 010°02'0 0.0
2017-Nov-07 02:19N 44°02' E 010°02'0 0.0
2017-Nov-07 01:43N 44°02' E 010°02'0 0.0
2017-Nov-07 01:28N 44°02' E 010°02'0 0.0
2017-Nov-07 00:49N 44°02' E 010°02'0 0.0
2017-Nov-07 00:22N 44°02' E 010°02'0 0.0
2017-Nov-06 23:58N 44°02' E 010°02'0 0.0
2017-Nov-06 23:22N 44°02' E 010°02'0 0.0
2017-Nov-06 22:58N 44°02' E 010°02'0 0.0
2017-Nov-06 22:22N 44°02' E 010°02'0 0.0
2017-Nov-06 21:58N 44°02' E 010°02'0 0.0
2017-Nov-06 21:28N 44°02' E 010°02'0 0.0
2017-Nov-06 20:58N 44°02' E 010°02'0 0.0
2017-Nov-06 20:13N 44°02' E 010°02'0 0.0
2017-Nov-06 02:28N 44°02' E 010°02'0 0.0
2017-Nov-06 01:52N 44°02' E 010°02'0 0.0
2017-Nov-06 01:25N 44°02' E 010°02'0 0.0
2017-Nov-06 00:58N 44°02' E 010°02'0 0.0
2017-Nov-06 00:28N 44°02' E 010°02'0 0.0
2017-Nov-05 23:58N 44°02' E 010°02'0 0.0
2017-Nov-05 23:28N 44°02' E 010°02'0 0.0
2017-Nov-05 22:58N 44°02' E 010°02'0 0.0
2017-Nov-05 22:28N 44°02' E 010°02'0 0.0
2017-Nov-05 21:58N 44°02' E 010°02'0 0.0
2017-Nov-05 21:28N 44°02' E 010°02'0 0.0
2017-Nov-05 20:58N 44°02' E 010°02'0 0.0
2017-Nov-05 20:28N 44°02' E 010°02'0 0.0
2017-Nov-05 19:58N 44°02' E 010°02'0 0.0
2017-Nov-05 19:25N 44°02' E 010°02'0 0.0
2017-Nov-05 18:58N 44°02' E 010°02'0 0.0
2017-Nov-05 18:25N 44°02' E 010°02'0 0.0
2017-Nov-05 17:58N 44°02' E 010°02'0 0.0
2017-Nov-05 17:28N 44°02' E 010°02'0 0.0
2017-Nov-05 16:58N 44°02' E 010°02'0 0.0
2017-Nov-05 16:28N 44°02' E 010°02'0 0.0
2017-Nov-05 15:55N 44°02' E 010°02'0 0.0
2017-Nov-05 15:28N 44°02' E 010°02'0 0.0
2017-Nov-05 14:58N 44°02' E 010°02'0 0.0
2017-Nov-05 14:28N 44°02' E 010°02'0 0.0
2017-Nov-05 13:58N 44°02' E 010°02'0 0.0
2017-Nov-05 13:28N 44°02' E 010°02'0 0.0
2017-Nov-05 12:58N 44°02' E 010°02'0 0.0
2017-Nov-05 12:28N 44°02' E 010°02'0 0.0
2017-Nov-05 11:58N 44°02' E 010°02'0 0.0
2017-Nov-05 11:28N 44°02' E 010°02'0 0.0
2017-Nov-05 10:52N 44°02' E 010°02'0 0.0
2017-Nov-05 10:28N 44°02' E 010°02'0 0.0
2017-Nov-05 09:58N 44°02' E 010°02'0 0.0
2017-Nov-05 09:28N 44°02' E 010°02'0 0.0
2017-Nov-05 08:55N 44°02' E 010°02'0 0.0
2017-Nov-05 08:28N 44°02' E 010°02'0 0.0
2017-Nov-05 07:58N 44°02' E 010°02'0 0.0
2017-Nov-05 07:28N 44°02' E 010°02'0 0.0
2017-Nov-05 06:58N 44°02' E 010°02'0 0.0
2017-Nov-05 06:28N 44°02' E 010°02'0 0.0
2017-Nov-05 05:58N 44°02' E 010°02'0 0.0
2017-Nov-05 05:28N 44°02' E 010°02'0 0.0
2017-Nov-05 04:58N 44°02' E 010°02'0 0.0
2017-Nov-05 04:28N 44°02' E 010°02'0 0.0
2017-Nov-05 03:58N 44°02' E 010°02'0 0.0
2017-Nov-05 03:28N 44°02' E 010°02'0 0.0
2017-Nov-05 02:58N 44°02' E 010°02'0 0.0
2017-Nov-05 02:28N 44°02' E 010°02'0 0.0
2017-Nov-05 01:58N 44°02' E 010°02'0 0.0
2017-Nov-05 01:22N 44°02' E 010°02'0 0.0
2017-Nov-05 00:58N 44°02' E 010°02'0 0.0
2017-Nov-05 00:28N 44°02' E 010°02'0 0.0
2017-Nov-04 23:58N 44°02' E 010°02'0 0.0
2017-Nov-04 23:28N 44°02' E 010°02'0 0.0
2017-Nov-04 22:55N 44°02' E 010°02'0 0.0
2017-Nov-04 22:25N 44°02' E 010°02'0 0.0
2017-Nov-04 21:58N 44°02' E 010°02'0 0.0
2017-Nov-04 21:28N 44°02' E 010°02'0 0.0
2017-Nov-04 20:58N 44°02' E 010°02'0 0.0
2017-Nov-04 20:28N 44°02' E 010°02'0 0.0
2017-Nov-04 19:58N 44°02' E 010°02'0 0.0
2017-Nov-04 19:19N 44°02' E 010°02'0 0.0
2017-Nov-04 18:58N 44°02' E 010°02'0 0.0
2017-Nov-04 18:28N 44°02' E 010°02'0 0.0
2017-Nov-04 17:52N 44°02' E 010°02'0 0.0
2017-Nov-04 17:28N 44°02' E 010°02'0 0.0
2017-Nov-04 16:58N 44°02' E 010°02'0 0.0
2017-Nov-04 16:28N 44°02' E 010°02'0 0.0
2017-Nov-04 15:55N 44°02' E 010°02'0 0.0
2017-Nov-04 15:07N 44°02' E 010°02'0 0.0
2017-Nov-04 14:58N 44°02' E 010°02'0 0.0
2017-Nov-04 14:28N 44°02' E 010°02'0 0.0
2017-Nov-04 13:49N 44°02' E 010°02'0 0.0
2017-Nov-04 13:28N 44°02' E 010°02'0 0.0
2017-Nov-04 12:58N 44°02' E 010°02'0 0.0
2017-Nov-04 12:25N 44°02' E 010°02'0 0.0
2017-Nov-04 11:58N 44°02' E 010°02'0 0.0
2017-Nov-04 11:28N 44°02' E 010°02'0 0.0
2017-Nov-04 10:58N 44°02' E 010°02'0 0.0
2017-Nov-04 10:28N 44°02' E 010°02'0 0.0
2017-Nov-04 09:55N 44°02' E 010°02'0 0.0
2017-Nov-04 09:28N 44°02' E 010°02'0 0.0
2017-Nov-04 08:58N 44°02' E 010°02'0 0.0
2017-Nov-04 08:28N 44°02' E 010°02'0 0.0
2017-Nov-04 07:55N 44°02' E 010°02'0 0.0
2017-Nov-04 07:28N 44°02' E 010°02'0 0.0
2017-Nov-04 06:58N 44°02' E 010°02'0 0.0
2017-Nov-04 06:28N 44°02' E 010°02'0 0.0
2017-Nov-04 05:55N 44°02' E 010°02'0 0.0
2017-Nov-04 05:28N 44°02' E 010°02'0 0.0
2017-Nov-04 04:58N 44°02' E 010°02'0 0.0
2017-Nov-04 04:25N 44°02' E 010°02'0 0.0
2017-Nov-04 03:58N 44°02' E 010°02'0 0.0
2017-Nov-04 03:25N 44°02' E 010°02'0 0.0
2017-Nov-04 02:49N 44°02' E 010°02'0 0.0
2017-Nov-04 02:25N 44°02' E 010°02'0 0.0
2017-Nov-04 01:40N 44°02' E 010°02'0 0.0
2017-Nov-04 01:22N 44°02' E 010°02'0 0.0
2017-Nov-04 00:55N 44°02' E 010°02'0 0.0
2017-Nov-04 00:22N 44°02' E 010°02'0 0.0
2017-Nov-03 23:55N 44°02' E 010°02'0 0.0
2017-Nov-03 23:25N 44°02' E 010°02'0 0.0
2017-Nov-03 22:58N 44°02' E 010°02'0 0.0
2017-Nov-03 22:25N 44°02' E 010°02'0 0.0
2017-Nov-03 21:58N 44°02' E 010°02'0 0.0
2017-Nov-03 21:28N 44°02' E 010°02'0 0.0
2017-Nov-03 20:58N 44°02' E 010°02'0 0.0
2017-Nov-03 20:28N 44°02' E 010°02'0 0.0
2017-Nov-03 19:58N 44°02' E 010°02'0 0.0
2017-Nov-03 19:28N 44°02' E 010°02'0 0.0
2017-Nov-03 18:55N 44°02' E 010°02'0 0.0
2017-Nov-03 18:28N 44°02' E 010°02'0 0.0
2017-Nov-03 17:52N 44°02' E 010°02'0 0.0
2017-Nov-03 17:28N 44°02' E 010°02'0 0.0
2017-Nov-03 16:58N 44°02' E 010°02'0 0.0
2017-Nov-03 16:13N 44°02' E 010°02'0 0.0
2017-Nov-03 15:58N 44°02' E 010°02'0 0.0
2017-Nov-03 15:25N 44°02' E 010°02'0 0.0
2017-Nov-03 14:55N 44°02' E 010°02'0 0.0
2017-Nov-03 14:28N 44°02' E 010°02'0 0.0
2017-Nov-03 13:58N 44°02' E 010°02'0 0.0
2017-Nov-03 13:28N 44°02' E 010°02'0 0.0
2017-Nov-03 12:55N 44°02' E 010°02'0 0.0
2017-Nov-03 12:28N 44°02' E 010°02'0 0.0
2017-Nov-03 11:58N 44°02' E 010°02'0 0.0
2017-Nov-03 11:25N 44°02' E 010°02'0 0.0
2017-Nov-03 10:55N 44°02' E 010°02'0 0.0
2017-Nov-03 10:16N 44°02' E 010°02'0 0.0
2017-Nov-03 09:58N 44°02' E 010°02'0 0.0
2017-Nov-03 09:25N 44°02' E 010°02'0 0.0
2017-Nov-03 08:58N 44°02' E 010°02'0 0.0
2017-Nov-03 08:22N 44°02' E 010°02'0 0.0
2017-Nov-03 07:58N 44°02' E 010°02'0 0.0
2017-Nov-03 07:28N 44°02' E 010°02'0 0.0
2017-Nov-03 06:55N 44°02' E 010°02'0 0.0
2017-Nov-03 06:28N 44°02' E 010°02'0 0.0
2017-Nov-03 05:58N 44°02' E 010°02'0 0.0
2017-Nov-03 05:28N 44°02' E 010°02'0 0.0
2017-Nov-03 04:58N 44°02' E 010°02'0 0.0
2017-Nov-03 04:28N 44°02' E 010°02'0 0.0
2017-Nov-03 03:55N 44°02' E 010°02'0 0.0
2017-Nov-03 03:28N 44°02' E 010°02'0 0.0
2017-Nov-03 02:55N 44°02' E 010°02'0 0.0
2017-Nov-03 02:25N 44°02' E 010°02'0 0.0
2017-Nov-03 01:55N 44°02' E 010°02'0 0.0
2017-Nov-03 01:28N 44°02' E 010°02'0 0.0
2017-Nov-03 00:58N 44°02' E 010°02'0 0.0
2017-Nov-03 00:28N 44°02' E 010°02'0 0.0
2017-Nov-02 23:58N 44°02' E 010°02'0 0.0
2017-Nov-02 23:28N 44°02' E 010°02'0 0.0
2017-Nov-02 22:55N 44°02' E 010°02'0 0.0
2017-Nov-02 22:28N 44°02' E 010°02'0 0.0
2017-Nov-02 21:49N 44°02' E 010°02'0 0.0
2017-Nov-02 21:25N 44°02' E 010°02'0 0.0
2017-Nov-02 20:58N 44°02' E 010°02'0 0.0
2017-Nov-02 20:28N 44°02' E 010°02'0 0.0
2017-Nov-02 19:58N 44°02' E 010°02'0 0.0
2017-Nov-02 19:28N 44°02' E 010°02'0 0.0
2017-Nov-02 18:58N 44°02' E 010°02'0 0.0
2017-Nov-02 18:28N 44°02' E 010°02'0 0.0
2017-Nov-02 17:58N 44°02' E 010°02'0 0.0
2017-Nov-02 17:25N 44°02' E 010°02'0 0.0
2017-Nov-02 16:58N 44°02' E 010°02'0 0.0
2017-Nov-02 16:28N 44°02' E 010°02'0 0.0
2017-Nov-02 15:58N 44°02' E 010°02'0 0.0
2017-Nov-02 15:28N 44°02' E 010°02'0 0.0
2017-Nov-02 14:52N 44°02' E 010°02'0 0.0
2017-Nov-02 14:22N 44°02' E 010°02'0 0.0
2017-Nov-02 13:58N 44°02' E 010°02'0 0.0
2017-Nov-02 13:28N 44°02' E 010°02'0 0.0
2017-Nov-02 12:55N 44°02' E 010°02'0 0.0
2017-Nov-02 12:28N 44°02' E 010°02'0 0.0
2017-Nov-02 11:55N 44°02' E 010°02'0 0.0
2017-Nov-02 11:25N 44°02' E 010°02'0 0.0
2017-Nov-02 10:58N 44°02' E 010°02'0 0.0
2017-Nov-02 10:28N 44°02' E 010°02'0 0.0
2017-Nov-02 09:55N 44°02' E 010°02'0 0.0
2017-Nov-02 09:28N 44°02' E 010°02'0 0.0
2017-Nov-02 08:58N 44°02' E 010°02'0 0.0
2017-Nov-02 08:28N 44°02' E 010°02'0 0.0
2017-Nov-02 07:52N 44°02' E 010°02'0 0.0
2017-Nov-02 07:28N 44°02' E 010°02'0 0.0
2017-Nov-02 06:58N 44°02' E 010°02'0 0.0
2017-Nov-02 06:28N 44°02' E 010°02'0 0.0
2017-Nov-02 05:58N 44°02' E 010°02'0 0.0
2017-Nov-02 05:28N 44°02' E 010°02'0 0.0
2017-Nov-02 04:55N 44°02' E 010°02'0 0.0
2017-Nov-02 04:28N 44°02' E 010°02'0 0.0
2017-Nov-02 03:58N 44°02' E 010°02'0 0.0
2017-Nov-02 03:22N 44°02' E 010°02'0 0.0
2017-Nov-02 02:58N 44°02' E 010°02'0 0.0
2017-Nov-02 02:28N 44°02' E 010°02'0 0.0
2017-Nov-02 01:58N 44°02' E 010°02'0 0.0
2017-Nov-02 01:25N 44°02' E 010°02'0 0.0
2017-Nov-02 00:58N 44°02' E 010°02'0 0.0
2017-Nov-02 00:28N 44°02' E 010°02'0 0.0
2017-Nov-01 23:55N 44°02' E 010°02'0 0.0
2017-Nov-01 23:28N 44°02' E 010°02'0 0.0
2017-Nov-01 22:58N 44°02' E 010°02'0 0.0
2017-Nov-01 22:28N 44°02' E 010°02'0 0.0
2017-Nov-01 21:58N 44°02' E 010°02'0 0.0
2017-Nov-01 21:28N 44°02' E 010°02'0 0.0
2017-Nov-01 20:58N 44°02' E 010°02'0 0.0
2017-Nov-01 20:25N 44°02' E 010°02'0 0.0
2017-Nov-01 19:55N 44°02' E 010°02'0 0.0
2017-Nov-01 19:28N 44°02' E 010°02'0 0.0
2017-Nov-01 18:58N 44°02' E 010°02'0 0.0
2017-Nov-01 18:28N 44°02' E 010°02'  

Dump ship's entire track history